Time;durP1;ratioP1;P1;durP2;ratioP2;P2;SDS_P1;SDS_P2;PMS_P1;PMS_P2;Temp;Humidity;BMP_temperature;BMP_pressure;BME280_temperature;BME280_humidity;BME280_pressure;Samples;Min_cycle;Max_cycle;Signal;HPM_P1;HPM_P2
2021/04/20 00:01:09;;;;;;;32.78;22.08;;;4.90;99.90;;;;;;5069114;28;20738;-72
2021/04/20 00:03:36;;;;;;;29.23;21.80;;;5.00;99.90;;;;;;5069533;28;20201;-72
2021/04/20 00:06:03;;;;;;;25.10;20.25;;;4.90;99.90;;;;;;5069671;28;20212;-72
2021/04/20 00:08:30;;;;;;;28.05;20.75;;;5.00;99.90;;;;;;5069123;28;20316;-72
2021/04/20 00:10:56;;;;;;;28.95;21.05;;;4.90;99.90;;;;;;5068897;28;20296;-72
2021/04/20 00:13:22;;;;;;;27.80;20.65;;;4.90;99.90;;;;;;5069002;28;20223;-72
2021/04/20 00:15:49;;;;;;;26.13;19.48;;;4.80;99.90;;;;;;5069468;28;20200;-72
2021/04/20 00:18:15;;;;;;;26.58;18.75;;;4.80;99.90;;;;;;5068973;28;20220;-72
2021/04/20 00:20:42;;;;;;;30.33;19.17;;;4.80;99.90;;;;;;5068735;28;20227;-72
2021/04/20 00:23:09;;;;;;;26.92;19.40;;;4.70;99.90;;;;;;5069142;28;20578;-72
2021/04/20 00:25:36;;;;;;;25.80;18.88;;;4.70;99.90;;;;;;5068964;28;20310;-72
2021/04/20 00:28:03;;;;;;;31.45;20.30;;;4.60;99.90;;;;;;5068543;28;20204;-72
2021/04/20 00:30:30;;;;;;;28.42;21.40;;;4.50;99.90;;;;;;5068194;28;20699;-72
2021/04/20 00:32:56;;;;;;;24.27;18.50;;;4.50;99.90;;;;;;5069277;28;20670;-72
2021/04/20 00:35:22;;;;;;;23.15;17.40;;;4.40;99.90;;;;;;5068748;28;20204;-72
2021/04/20 00:37:50;;;;;;;23.23;18.02;;;4.30;99.90;;;;;;5069003;28;20200;-72
2021/04/20 00:40:18;;;;;;;22.25;17.52;;;4.30;99.90;;;;;;5068164;28;20272;-72
2021/04/20 00:42:50;;;;;;;23.80;17.13;;;4.20;99.90;;;;;;5068835;28;20257;-72
2021/04/20 00:45:20;;;;;;;23.50;16.55;;;4.10;99.90;;;;;;5068794;28;20291;-72
2021/04/20 00:47:46;;;;;;;22.70;15.60;;;4.00;99.90;;;;;;5068605;28;20299;-72
2021/04/20 00:50:14;;;;;;;22.98;17.80;;;3.90;99.90;;;;;;5068110;28;20224;-72
2021/04/20 00:52:40;;;;;;;33.97;20.60;;;3.90;99.90;;;;;;5068745;28;20208;-72
2021/04/20 00:55:09;;;;;;;28.70;20.75;;;4.00;99.90;;;;;;5068574;28;20200;-72
2021/04/20 00:57:35;;;;;;;31.75;20.08;;;3.90;99.90;;;;;;5068906;28;20582;-72
2021/04/20 01:00:02;;;;;;;32.38;20.23;;;3.90;99.90;;;;;;5068608;28;20319;-72
2021/04/20 01:02:28;;;;;;;26.58;18.98;;;3.90;99.90;;;;;;5068063;28;20295;-72
2021/04/20 01:04:54;;;;;;;24.73;17.63;;;3.80;99.90;;;;;;5068439;28;20295;-72
2021/04/20 01:07:21;;;;;;;23.48;18.50;;;3.80;99.90;;;;;;5068287;28;20245;-72
2021/04/20 01:09:48;;;;;;;27.13;18.42;;;3.70;99.90;;;;;;5068259;28;20220;-72
2021/04/20 01:12:16;;;;;;;26.25;17.25;;;3.70;99.90;;;;;;5067847;28;20695;-72
2021/04/20 01:14:43;;;;;;;29.67;19.70;;;3.60;99.90;;;;;;5068593;28;20208;-72
2021/04/20 01:17:09;;;;;;;26.60;19.45;;;3.60;99.90;;;;;;5068509;28;20207;-72
2021/04/20 01:19:37;;;;;;;28.23;19.45;;;3.50;99.90;;;;;;5068495;28;20238;-72
2021/04/20 01:22:04;;;;;;;26.73;18.70;;;3.50;99.90;;;;;;5067852;28;20291;-72
2021/04/20 01:24:33;;;;;;;25.15;18.13;;;3.50;99.90;;;;;;5068278;28;20204;-72
2021/04/20 01:27:00;;;;;;;24.40;18.00;;;3.50;99.90;;;;;;5068139;28;20294;-72
2021/04/20 01:29:26;;;;;;;26.98;18.92;;;3.40;99.90;;;;;;5068234;28;20217;-72
2021/04/20 01:31:53;;;;;;;29.67;21.48;;;3.40;99.90;;;;;;5067646;28;20220;-72
2021/04/20 01:34:20;;;;;;;26.13;19.02;;;3.30;99.90;;;;;;5068245;28;20623;-72
2021/04/20 01:36:46;;;;;;;29.08;19.85;;;3.30;99.90;;;;;;5068436;28;20253;-72
2021/04/20 01:39:13;;;;;;;31.05;19.55;;;3.20;99.90;;;;;;5069296;28;20224;-72
2021/04/20 01:41:42;;;;;;;28.67;19.70;;;3.20;99.90;;;;;;5071651;28;20222;-72
2021/04/20 01:44:09;;;;;;;26.48;18.27;;;3.20;99.90;;;;;;5071687;28;20269;-72
2021/04/20 01:46:35;;;;;;;27.65;20.40;;;3.20;99.90;;;;;;5071989;28;20200;-73
2021/04/20 01:49:02;;;;;;;29.23;19.17;;;3.10;99.90;;;;;;5071713;28;20496;-72
2021/04/20 01:51:29;;;;;;;26.58;19.58;;;3.10;99.90;;;;;;5071156;28;20622;-72
2021/04/20 01:53:56;;;;;;;26.88;18.30;;;3.00;99.90;;;;;;5071487;28;20204;-72
2021/04/20 01:56:22;;;;;;;30.98;21.15;;;3.00;99.90;;;;;;5071884;28;20307;-72
2021/04/20 01:58:50;;;;;;;26.67;19.30;;;3.00;99.90;;;;;;5071807;28;20220;-72
2021/04/20 02:01:20;;;;;;;25.77;18.08;;;3.00;99.90;;;;;;5070772;28;20218;-72
2021/04/20 02:03:49;;;;;;;30.27;19.52;;;3.00;99.90;;;;;;5071507;28;20212;-72
2021/04/20 02:06:17;;;;;;;29.17;20.48;;;2.90;99.90;;;;;;5071084;28;20234;-72
2021/04/20 02:08:44;;;;;;;26.20;19.10;;;2.90;99.90;;;;;;5071396;28;20230;-72
2021/04/20 02:11:12;;;;;;;30.98;19.35;;;2.90;99.90;;;;;;5070794;28;20240;-72
2021/04/20 02:13:38;;;;;;;25.95;17.25;;;2.90;99.90;;;;;;5071303;28;20200;-72
2021/04/20 02:16:08;;;;;;;30.15;18.30;;;3.00;99.90;;;;;;5071384;28;20281;-72
2021/04/20 02:18:36;;;;;;;24.50;17.10;;;3.00;99.90;;;;;;5071185;28;20258;-73
2021/04/20 02:21:04;;;;;;;25.40;17.27;;;3.10;99.90;;;;;;5070799;28;20205;-72
2021/04/20 02:23:30;;;;;;;22.88;17.00;;;3.10;99.90;;;;;;5070882;28;20201;-72
2021/04/20 02:26:03;;;;;;;28.30;17.13;;;3.10;99.90;;;;;;5071186;28;20295;-72
2021/04/20 02:28:31;;;;;;;26.83;16.88;;;3.10;99.90;;;;;;5070914;28;20228;-72
2021/04/20 02:31:00;;;;;;;26.90;15.25;;;3.00;99.90;;;;;;5070507;28;20687;-72
2021/04/20 02:33:28;;;;;;;56.15;18.00;;;3.10;99.90;;;;;;5071091;28;20286;-72
2021/04/20 02:35:56;;;;;;;31.02;16.15;;;3.00;99.90;;;;;;5071033;28;20197;-72
2021/04/20 02:38:23;;;;;;;20.38;14.57;;;3.00;99.90;;;;;;5070639;28;20220;-72
2021/04/20 02:40:53;;;;;;;21.08;14.43;;;3.00;99.90;;;;;;5070324;28;20691;-72
2021/04/20 02:43:20;;;;;;;26.38;15.70;;;3.00;99.90;;;;;;5070651;28;20686;-73
2021/04/20 02:45:49;;;;;;;20.35;15.32;;;3.00;99.90;;;;;;5070877;28;20287;-72
2021/04/20 02:48:16;;;;;;;22.25;15.23;;;3.00;99.90;;;;;;5070525;28;20216;-72
2021/04/20 02:50:45;;;;;;;27.92;16.17;;;3.10;99.90;;;;;;5069508;28;20223;-72
2021/04/20 02:53:15;;;;;;;37.38;16.42;;;3.10;99.90;;;;;;5070105;28;20212;-72
2021/04/20 02:55:42;;;;;;;31.70;17.58;;;3.10;99.90;;;;;;5070748;28;20204;-72
2021/04/20 02:58:15;;;;;;;50.95;16.92;;;3.10;99.90;;;;;;5070282;28;20736;-72
2021/04/20 03:00:44;;;;;;;22.02;15.52;;;3.20;99.90;;;;;;5070276;28;20239;-72
2021/04/20 03:03:12;;;;;;;19.90;16.33;;;3.20;99.90;;;;;;5070111;28;20205;-72
2021/04/20 03:05:39;;;;;;;42.80;16.85;;;3.20;99.90;;;;;;5070333;28;20205;-72
2021/04/20 03:08:07;;;;;;;47.10;18.92;;;3.20;99.90;;;;;;5069864;28;20200;-72
2021/04/20 03:10:35;;;;;;;32.58;17.38;;;3.10;99.90;;;;;;5069910;28;20417;-72
2021/04/20 03:13:02;;;;;;;29.15;18.30;;;3.10;99.90;;;;;;5070345;28;20204;-72
2021/04/20 03:15:29;;;;;;;30.00;18.00;;;3.10;99.90;;;;;;5069854;28;20212;-72
2021/04/20 03:17:56;;;;;;;34.65;17.45;;;3.10;99.90;;;;;;5070006;28;20295;-72
2021/04/20 03:20:22;;;;;;;28.80;18.35;;;3.10;99.90;;;;;;5069187;28;20232;-72
2021/04/20 03:22:50;;;;;;;29.40;19.30;;;3.10;99.90;;;;;;5070352;28;20211;-72
2021/04/20 03:25:28;;;;;;;30.00;18.08;;;3.20;99.90;;;;;;5069611;28;20246;-72
2021/04/20 03:27:57;;;;;;;31.73;19.70;;;3.30;99.90;;;;;;5070187;28;20566;-72
2021/04/20 03:30:26;;;;;;;23.40;17.73;;;3.20;99.90;;;;;;5068974;28;20254;-72
2021/04/20 03:33:01;;;;;;;38.00;18.40;;;3.20;99.90;;;;;;5069723;28;20196;-72
2021/04/20 03:35:34;;;;;;;35.83;18.17;;;3.20;99.90;;;;;;5069377;28;20211;-72
2021/04/20 03:38:08;;;;;;;23.42;17.77;;;3.20;99.90;;;;;;5069539;28;20611;-72
2021/04/20 03:40:38;;;;;;;25.30;17.45;;;3.10;99.90;;;;;;5068640;28;20286;-72
2021/04/20 03:43:12;;;;;;;26.95;18.80;;;3.20;99.90;;;;;;5069487;28;20295;-72
2021/04/20 03:45:44;;;;;;;27.73;17.35;;;3.30;99.90;;;;;;5069766;28;20265;-73
2021/04/20 03:48:15;;;;;;;23.80;16.17;;;3.30;99.90;;;;;;5069321;28;20224;-73
2021/04/20 03:50:44;;;;;;;24.25;17.40;;;3.20;99.90;;;;;;5069040;28;20211;-72
2021/04/20 03:53:16;;;;;;;23.27;15.70;;;3.20;99.90;;;;;;5069386;28;20212;-73
2021/04/20 03:55:47;;;;;;;34.75;17.98;;;3.20;99.90;;;;;;5069619;28;20204;-72
2021/04/20 03:58:15;;;;;;;21.60;16.23;;;3.10;99.90;;;;;;5069834;28;20250;-72
2021/04/20 04:00:43;;;;;;;18.75;15.48;;;3.10;99.90;;;;;;5068350;28;20207;-72
2021/04/20 04:03:12;;;;;;;19.27;15.45;;;3.10;99.90;;;;;;5074168;28;20378;-73
2021/04/20 04:05:40;;;;;;;19.08;16.65;;;3.10;99.90;;;;;;5069773;28;20207;-72
2021/04/20 04:08:07;;;;;;;18.10;14.55;;;3.10;99.90;;;;;;5081432;28;20211;-72
2021/04/20 04:10:35;;;;;;;20.83;15.63;;;3.10;99.90;;;;;;5082075;28;20195;-73
2021/04/20 04:13:05;;;;;;;17.60;15.00;;;3.00;99.90;;;;;;5068914;28;20210;-73
2021/04/20 04:15:34;;;;;;;17.83;14.73;;;3.00;99.90;;;;;;5068442;28;20731;-73
2021/04/20 04:18:06;;;;;;;18.67;16.75;;;3.10;99.90;;;;;;5067811;28;20458;-72
2021/04/20 04:20:33;;;;;;;17.05;14.90;;;3.00;99.90;;;;;;5067689;28;20208;-71
2021/04/20 04:23:04;;;;;;;17.27;14.30;;;3.00;99.90;;;;;;5068508;28;20287;-71
2021/04/20 04:25:34;;;;;;;18.05;15.05;;;3.00;99.90;;;;;;5068002;28;20291;-71
2021/04/20 04:28:04;;;;;;;19.33;16.00;;;3.00;99.90;;;;;;5068569;28;20243;-71
2021/04/20 04:30:31;;;;;;;20.88;15.85;;;3.00;99.90;;;;;;5067518;28;20200;-72
2021/04/20 04:32:58;;;;;;;25.27;18.05;;;3.00;99.90;;;;;;5068112;28;20204;-72
2021/04/20 04:35:25;;;;;;;19.60;15.60;;;3.00;99.90;;;;;;5067322;28;20328;-72
2021/04/20 04:37:52;;;;;;;18.20;15.38;;;3.00;99.90;;;;;;5068446;28;20209;-72
2021/04/20 04:40:21;;;;;;;19.42;15.75;;;3.10;99.90;;;;;;5067929;28;20313;-72
2021/04/20 04:42:47;;;;;;;18.73;14.75;;;3.10;99.90;;;;;;5069599;28;20668;-72
2021/04/20 04:45:16;;;;;;;20.17;16.65;;;3.10;99.90;;;;;;5068609;28;20676;-72
2021/04/20 04:47:43;;;;;;;21.73;16.60;;;3.10;99.90;;;;;;5068357;28;20226;-72
2021/04/20 04:50:11;;;;;;;18.30;15.77;;;3.00;99.90;;;;;;5067818;28;20269;-73
2021/04/20 04:52:39;;;;;;;18.40;14.38;;;3.10;99.90;;;;;;5068094;28;20224;-72
2021/04/20 04:55:08;;;;;;;20.95;15.60;;;3.00;99.90;;;;;;5068000;28;20683;-72
2021/04/20 04:57:35;;;;;;;19.02;14.35;;;3.00;99.90;;;;;;5068528;28;20201;-73
2021/04/20 05:00:05;;;;;;;19.23;15.00;;;2.90;99.90;;;;;;5068087;28;20232;-73
2021/04/20 05:02:34;;;;;;;17.90;14.32;;;2.90;99.90;;;;;;5068337;28;20678;-70
2021/04/20 05:05:04;;;;;;;18.52;14.15;;;2.90;99.90;;;;;;5137879;22;20203;-71
2021/04/20 05:07:31;;;;;;;17.15;14.13;;;2.90;99.90;;;;;;5064938;28;20224;-71
2021/04/20 05:10:00;;;;;;;17.42;14.25;;;2.90;99.90;;;;;;5085273;28;20228;-71
2021/04/20 05:12:27;;;;;;;17.23;13.88;;;2.90;99.90;;;;;;5087929;28;20230;-70
2021/04/20 05:14:54;;;;;;;20.27;15.10;;;3.00;99.90;;;;;;5090948;28;20199;-70
2021/04/20 05:17:21;;;;;;;21.10;16.05;;;2.90;99.90;;;;;;5092364;28;20195;-69
2021/04/20 05:19:51;;;;;;;21.45;14.65;;;3.00;99.90;;;;;;5092755;28;20231;-71
2021/04/20 05:22:17;;;;;;;22.95;16.27;;;3.00;99.90;;;;;;5091792;28;20294;-70
2021/04/20 05:24:44;;;;;;;20.42;14.93;;;2.90;99.90;;;;;;5092440;28;20556;-71
2021/04/20 05:27:11;;;;;;;23.55;15.18;;;3.00;99.90;;;;;;5092083;28;20204;-71
2021/04/20 05:29:39;;;;;;;18.25;15.00;;;3.00;99.90;;;;;;5092398;28;20230;-69
2021/04/20 05:32:06;;;;;;;18.27;14.52;;;3.00;99.90;;;;;;5091020;28;20222;-69
2021/04/20 05:34:32;;;;;;;23.10;16.00;;;3.10;99.90;;;;;;5092725;28;20204;-68
2021/04/20 05:37:00;;;;;;;24.10;15.32;;;3.10;99.90;;;;;;5092762;28;20208;-70
2021/04/20 05:39:27;;;;;;;20.55;15.88;;;3.10;99.90;;;;;;5092595;28;20212;-71
2021/04/20 05:41:53;;;;;;;19.15;13.80;;;3.20;99.90;;;;;;5091947;28;20249;-69
2021/04/20 05:44:19;;;;;;;16.60;13.82;;;3.10;99.90;;;;;;5092081;28;20246;-70
2021/04/20 05:46:48;;;;;;;21.40;15.60;;;3.10;99.90;;;;;;5079285;28;20196;-68
2021/04/20 05:49:15;;;;;;;21.27;16.17;;;3.20;99.90;;;;;;5071495;28;20220;-69
2021/04/20 05:51:43;;;;;;;18.70;15.60;;;3.30;99.90;;;;;;5071233;28;20729;-70
2021/04/20 05:54:11;;;;;;;18.52;14.18;;;3.30;99.90;;;;;;5071283;28;21072;-70
2021/04/20 05:56:38;;;;;;;18.73;15.00;;;3.40;99.90;;;;;;5071635;28;20299;-70
2021/04/20 05:59:05;;;;;;;20.88;16.80;;;3.50;99.90;;;;;;5071173;28;20778;-70
2021/04/20 06:01:38;;;;;;;21.13;15.60;;;3.60;99.90;;;;;;5071025;28;20197;-69
2021/04/20 06:04:06;;;;;;;21.02;16.55;;;3.70;99.90;;;;;;5071641;28;20250;-70
2021/04/20 06:06:34;;;;;;;21.40;15.82;;;3.80;99.90;;;;;;5071262;28;20672;-70
2021/04/20 06:09:03;;;;;;;20.48;16.63;;;3.90;99.90;;;;;;5071275;28;20228;-71
2021/04/20 06:11:30;;;;;;;19.40;15.93;;;4.10;99.90;;;;;;5070994;28;20220;-71
2021/04/20 06:13:57;;;;;;;18.95;15.55;;;4.20;99.90;;;;;;5071106;28;20247;-70
2021/04/20 06:16:24;;;;;;;20.58;16.55;;;4.30;99.90;;;;;;5071009;28;20211;-71
2021/04/20 06:18:50;;;;;;;21.67;16.45;;;4.40;99.90;;;;;;5071319;28;20575;-70
2021/04/20 06:21:18;;;;;;;23.95;16.85;;;4.60;99.90;;;;;;5070597;28;20205;-71
2021/04/20 06:23:45;;;;;;;23.23;17.17;;;4.80;99.90;;;;;;5071596;28;20593;-71
2021/04/20 06:26:12;;;;;;;23.33;15.95;;;4.90;99.90;;;;;;5070219;28;20219;-70
2021/04/20 06:28:40;;;;;;;25.02;16.83;;;5.10;99.90;;;;;;5071525;28;20262;-71
2021/04/20 06:31:07;;;;;;;26.75;20.05;;;5.30;99.90;;;;;;5070478;28;20310;-71
2021/04/20 06:33:36;;;;;;;23.13;17.95;;;5.50;99.90;;;;;;5071402;28;20215;-70
2021/04/20 06:36:04;;;;;;;22.52;18.40;;;5.60;99.90;;;;;;5070656;28;20197;-71
2021/04/20 06:38:32;;;;;;;25.83;19.13;;;5.70;99.90;;;;;;5070805;28;20220;-71
2021/04/20 06:41:01;;;;;;;27.23;19.60;;;5.90;99.90;;;;;;5069934;28;20397;-70
2021/04/20 06:43:30;;;;;;;24.70;19.25;;;6.10;99.90;;;;;;5062525;28;20204;-71
2021/04/20 06:46:01;;;;;;;24.25;19.85;;;6.20;99.90;;;;;;5068826;28;20223;-70
2021/04/20 06:48:39;;;;;;;29.45;21.92;;;6.40;99.90;;;;;;5066873;28;20221;-71
2021/04/20 06:51:13;;;;;;;25.90;20.90;;;6.60;99.90;;;;;;5066181;28;20226;-70
2021/04/20 06:53:44;;;;;;;25.25;19.80;;;6.80;99.90;;;;;;5058781;28;20201;-70
2021/04/20 06:56:22;;;;;;;26.50;21.73;;;7.00;99.90;;;;;;5068414;28;20209;-70
2021/04/20 06:58:53;;;;;;;29.50;22.38;;;7.20;99.90;;;;;;5067202;28;20224;-71
2021/04/20 07:01:26;;;;;;;28.25;21.85;;;7.30;99.90;;;;;;5067959;28;20197;-71
2021/04/20 07:04:06;;;;;;;31.92;22.90;;;7.50;99.90;;;;;;5068071;28;20196;-70
2021/04/20 07:06:37;;;;;;;31.02;22.85;;;7.70;99.90;;;;;;5067575;28;20208;-70
2021/04/20 07:09:14;;;;;;;33.47;23.65;;;7.80;99.90;;;;;;5066878;28;20274;-71
2021/04/20 07:11:44;;;;;;;32.72;22.55;;;8.00;99.90;;;;;;5067320;28;20252;-70
2021/04/20 07:14:17;;;;;;;35.55;23.85;;;8.10;99.90;;;;;;5065461;28;20208;-70
2021/04/20 07:16:52;;;;;;;32.75;22.38;;;8.20;99.90;;;;;;5068466;28;20597;-70
2021/04/20 07:19:31;;;;;;;27.55;21.08;;;8.30;99.90;;;;;;5066381;28;20695;-71
2021/04/20 07:22:37;;;;;;;27.95;22.38;;;8.50;99.90;;;;;;5067512;28;20203;-70
2021/04/20 07:25:24;;;;;;;31.00;22.50;;;8.60;99.90;;;;;;5058737;28;20196;-70
2021/04/20 07:28:07;;;;;;;30.30;21.20;;;8.80;99.90;;;;;;5067993;28;20208;-70
2021/04/20 07:30:43;;;;;;;28.80;20.90;;;8.90;99.90;;;;;;5066316;28;20205;-70
2021/04/20 07:33:45;;;;;;;26.58;20.63;;;9.10;99.90;;;;;;5067329;28;20560;-70
2021/04/20 07:36:18;;;;;;;29.48;20.75;;;9.30;99.90;;;;;;5067511;28;20200;-70
2021/04/20 07:38:56;;;;;;;24.63;19.20;;;9.50;99.90;;;;;;5065937;28;20252;-70
2021/04/20 07:41:30;;;;;;;26.17;19.13;;;9.70;99.90;;;;;;5067117;28;20279;-70
2021/04/20 07:44:24;;;;;;;26.05;18.70;;;10.00;99.90;;;;;;5066548;28;20200;-69
2021/04/20 07:46:53;;;;;;;22.00;18.63;;;10.20;99.90;;;;;;5058189;28;20204;-71
2021/04/20 07:49:27;;;;;;;22.73;17.77;;;10.50;99.90;;;;;;5064739;28;20232;-70
2021/04/20 07:51:58;;;;;;;22.48;16.63;;;10.60;99.90;;;;;;5066256;28;20224;-70
2021/04/20 07:54:42;;;;;;;22.00;16.88;;;10.80;99.90;;;;;;5066471;28;20216;-70
2021/04/20 07:57:15;;;;;;;25.13;16.73;;;10.80;99.90;;;;;;5067383;28;20278;-70
2021/04/20 07:59:50;;;;;;;20.17;15.60;;;10.90;99.90;;;;;;5065513;28;20220;-70
2021/04/20 08:02:30;;;;;;;23.30;16.15;;;10.80;99.90;;;;;;5067238;28;20200;-70
2021/04/20 08:05:06;;;;;;;20.25;16.75;;;10.90;99.90;;;;;;5067346;28;20773;-70
2021/04/20 08:07:39;;;;;;;19.98;16.20;;;11.10;99.90;;;;;;5066188;28;20679;-71
2021/04/20 08:10:10;;;;;;;22.15;18.17;;;11.30;99.90;;;;;;5066868;28;20220;-71
2021/04/20 08:12:48;;;;;;;20.25;15.90;;;11.60;99.90;;;;;;5067991;28;20238;-71
2021/04/20 08:15:20;;;;;;;18.98;15.65;;;11.80;99.90;;;;;;5067936;28;20212;-71
2021/04/20 08:17:50;;;;;;;17.05;14.70;;;12.10;99.90;;;;;;5068123;28;20200;-72
2021/04/20 08:20:21;;;;;;;18.60;15.50;;;12.50;99.90;;;;;;5066821;28;20291;-71
2021/04/20 08:22:50;;;;;;;17.25;15.20;;;12.80;99.90;;;;;;5067856;28;20207;-72
2021/04/20 08:25:22;;;;;;;16.15;14.32;;;13.10;99.90;;;;;;5066394;28;20208;-71
2021/04/20 08:27:54;;;;;;;20.45;16.88;;;13.20;99.90;;;;;;5068082;28;20218;-71
2021/04/20 08:30:27;;;;;;;17.58;15.75;;;13.60;99.90;;;;;;5066734;28;20222;-70
2021/04/20 08:32:54;;;;;;;17.02;15.32;;;13.80;99.90;;;;;;5067554;28;20228;-72
2021/04/20 08:35:24;;;;;;;16.98;15.18;;;14.20;99.90;;;;;;5067636;28;20196;-70
2021/04/20 08:38:13;;;;;;;14.80;12.93;;;14.50;99.90;;;;;;5068114;28;20667;-71
2021/04/20 08:40:45;;;;;;;15.10;13.50;;;15.20;99.90;;;;;;5066320;28;20307;-72
2021/04/20 08:43:27;;;;;;;14.13;12.60;;;15.60;99.90;;;;;;5067344;28;20462;-71
2021/04/20 08:45:59;;;;;;;16.63;13.43;;;15.90;99.90;;;;;;5067789;28;20458;-71
2021/04/20 08:48:38;;;;;;;13.90;12.40;;;15.80;99.30;;;;;;5066704;28;20470;-70
2021/04/20 08:51:11;;;;;;;19.53;14.07;;;16.10;98.70;;;;;;5067115;28;20480;-71
2021/04/20 08:53:51;;;;;;;14.33;12.53;;;16.20;97.80;;;;;;5067505;28;20966;-70
2021/04/20 08:56:26;;;;;;;14.73;13.07;;;16.70;97.40;;;;;;5066359;28;20913;-71
2021/04/20 08:59:20;;;;;;;14.50;12.90;;;17.10;96.90;;;;;;5066662;28;20535;-70
2021/04/20 09:02:06;;;;;;;14.00;12.60;;;17.20;96.70;;;;;;5067205;28;20459;-71
2021/04/20 09:04:54;;;;;;;13.40;12.00;;;17.10;95.00;;;;;;5067797;28;20454;-71
2021/04/20 09:07:31;;;;;;;13.27;11.93;;;17.20;93.90;;;;;;5067614;28;21109;-71
2021/04/20 09:10:04;;;;;;;13.87;12.33;;;17.60;94.30;;;;;;5066230;28;20515;-70
2021/04/20 09:12:34;;;;;;;12.80;11.47;;;18.20;95.10;;;;;;5067349;28;20485;-71
2021/04/20 09:15:02;;;;;;;17.40;13.77;;;18.90;94.40;;;;;;5067437;28;20466;-72
2021/04/20 09:17:32;;;;;;;13.57;12.27;;;19.40;93.30;;;;;;5067487;28;20895;-72
2021/04/20 09:20:04;;;;;;;14.00;12.60;;;19.50;92.10;;;;;;5066075;28;20485;-71
2021/04/20 09:22:45;;;;;;;13.40;12.10;;;19.80;92.00;;;;;;5066848;28;20458;-71
2021/04/20 09:25:16;;;;;;;13.87;11.73;;;20.10;90.50;;;;;;5066924;28;20458;-72
2021/04/20 09:27:48;;;;;;;12.77;10.70;;;20.50;90.00;;;;;;5067077;28;20527;-70
2021/04/20 09:30:18;;;;;;;12.43;11.13;;;20.40;90.20;;;;;;5065892;28;21000;-71
2021/04/20 09:32:49;;;;;;;11.47;10.33;;;20.50;88.20;;;;;;5067076;28;20482;-71
2021/04/20 09:35:15;;;;;;;10.70;9.60;;;20.60;87.40;;;;;;5067300;28;20466;-72
2021/04/20 09:37:44;;;;;;;11.27;10.03;;;20.90;88.90;;;;;;5067452;28;20466;-72
2021/04/20 09:40:13;;;;;;;10.97;9.20;;;21.40;85.10;;;;;;5065509;28;20479;-69
2021/04/20 09:42:42;;;;;;;6.47;5.83;;;21.40;84.90;;;;;;5067299;28;20454;-71
2021/04/20 09:45:14;;;;;;;8.73;7.50;;;21.40;81.60;;;;;;5066789;28;20800;-72
2021/04/20 09:47:51;;;;;;;10.37;9.20;;;22.10;83.40;;;;;;5067647;28;20458;-71
2021/04/20 09:50:22;;;;;;;10.17;9.17;;;22.60;81.10;;;;;;5065535;28;20494;-70
2021/04/20 09:53:02;;;;;;;9.20;8.40;;;23.00;79.30;;;;;;5067339;28;20492;-72
2021/04/20 09:55:34;;;;;;;9.50;8.50;;;23.40;78.00;;;;;;5065720;28;20469;-69
2021/04/20 09:58:00;;;;;;;11.10;8.50;;;23.30;76.20;;;;;;5066812;28;20462;-67
2021/04/20 10:00:28;;;;;;;11.70;8.73;;;23.40;75.60;;;;;;5066239;28;20945;-71
2021/04/20 10:03:16;;;;;;;13.40;10.70;;;23.80;76.00;;;;;;5069391;28;20466;-72
2021/04/20 10:05:59;;;;;;;10.80;9.63;;;23.40;77.80;;;;;;5070185;28;20493;-72
2021/04/20 10:08:36;;;;;;;10.50;9.23;;;23.30;74.70;;;;;;5069700;28;20501;-70
2021/04/20 10:11:09;;;;;;;10.93;9.87;;;23.60;77.50;;;;;;5070274;28;20450;-72
2021/04/20 10:13:47;;;;;;;11.73;10.63;;;23.60;73.70;;;;;;5071758;28;20458;-71
2021/04/20 10:16:18;;;;;;;11.43;10.33;;;23.50;72.00;;;;;;5070288;28;20826;-70
2021/04/20 10:18:56;;;;;;;10.00;9.10;;;22.70;71.50;;;;;;5068722;28;20492;-70
2021/04/20 10:21:28;;;;;;;11.83;10.60;;;22.40;73.80;;;;;;5069970;28;20954;-70
2021/04/20 10:24:04;;;;;;;8.50;7.70;;;22.80;75.90;;;;;;5070234;28;20553;-70
2021/04/20 10:26:38;;;;;;;8.30;7.60;;;23.30;74.20;;;;;;5061413;28;20489;-70
2021/04/20 10:29:13;;;;;;;9.30;8.03;;;23.60;70.20;;;;;;5069385;28;20473;-71
2021/04/20 10:31:47;;;;;;;9.70;8.80;;;23.90;72.60;;;;;;5069555;28;20478;-71
2021/04/20 10:34:17;;;;;;;10.23;9.33;;;24.50;71.70;;;;;;5069838;28;20465;-71
2021/04/20 10:36:49;;;;;;;10.33;9.33;;;24.40;69.60;;;;;;5070237;28;20458;-70
2021/04/20 10:39:17;;;;;;;11.30;9.90;;;24.80;72.50;;;;;;5069157;28;20844;-71
2021/04/20 10:41:45;;;;;;;11.30;9.87;;;25.10;68.50;;;;;;5069820;28;20465;-70
2021/04/20 10:44:14;;;;;;;10.20;9.20;;;24.70;71.20;;;;;;5077269;28;20876;-71
2021/04/20 10:46:41;;;;;;;9.40;8.60;;;24.80;70.30;;;;;;5070228;28;20458;-71
2021/04/20 10:49:08;;;;;;;8.93;8.13;;;25.10;71.00;;;;;;5068315;28;20482;-70
2021/04/20 10:51:36;;;;;;;8.37;7.30;;;24.70;67.30;;;;;;5069442;28;20575;-71
2021/04/20 10:54:03;;;;;;;6.93;6.33;;;24.70;70.20;;;;;;5069006;28;20455;-70
2021/04/20 10:56:32;;;;;;;8.00;7.30;;;24.30;63.90;;;;;;5069539;28;20477;-70
2021/04/20 10:59:00;;;;;;;9.20;8.37;;;24.30;67.40;;;;;;5068314;28;20536;-69
2021/04/20 11:01:29;;;;;;;8.37;7.67;;;24.60;67.60;;;;;;5069221;28;20528;-70
2021/04/20 11:03:58;;;;;;;12.57;9.90;;;24.60;66.00;;;;;;5070653;28;20820;-70
2021/04/20 11:11:21;;;;;;;7.10;6.50;;;25.80;65.60;;;;;;5058802;28;20471;-71
2021/04/20 11:13:49;;;;;;;7.20;6.50;;;25.50;62.90;;;;;;5062093;28;20455;-71
2021/04/20 11:16:20;;;;;;;7.60;6.90;;;25.70;64.60;;;;;;5068397;28;20487;-71
2021/04/20 11:18:54;;;;;;;8.60;7.80;;;26.20;63.20;;;;;;5065633;28;20481;-71
2021/04/20 11:21:25;;;;;;;7.83;7.07;;;26.50;64.20;;;;;;5067871;28;20462;-70
2021/04/20 11:23:57;;;;;;;9.27;8.37;;;26.50;66.60;;;;;;5067644;28;20462;-71
2021/04/20 11:26:31;;;;;;;8.30;7.50;;;27.10;65.60;;;;;;5075657;28;20472;-71
2021/04/20 11:29:02;;;;;;;8.10;7.30;;;27.20;62.80;;;;;;5090116;28;20477;-71
2021/04/20 11:31:33;;;;;;;7.13;6.53;;;27.10;63.00;;;;;;5089992;28;20821;-71
2021/04/20 11:34:04;;;;;;;6.10;5.57;;;27.10;58.50;;;;;;5090061;28;20714;-71
2021/04/20 11:36:35;;;;;;;8.33;6.37;;;26.90;59.80;;;;;;5089925;28;20449;-71
2021/04/20 11:39:05;;;;;;;7.03;6.43;;;26.60;59.70;;;;;;5089680;28;20484;-70
2021/04/20 11:41:38;;;;;;;6.93;6.33;;;26.60;60.50;;;;;;5089349;28;20477;-71
2021/04/20 11:44:06;;;;;;;8.57;6.60;;;26.50;59.20;;;;;;5089186;28;20461;-71
2021/04/20 11:46:34;;;;;;;5.60;5.10;;;26.20;60.50;;;;;;5089657;28;20454;-71
2021/04/20 11:49:11;;;;;;;7.67;6.97;;;26.50;61.70;;;;;;5089255;28;20519;-71
2021/04/20 11:51:39;;;;;;;8.03;7.30;;;26.20;57.90;;;;;;5089643;28;20453;-71
2021/04/20 11:54:06;;;;;;;7.60;6.90;;;24.90;61.50;;;;;;5089077;28;20577;-71
2021/04/20 11:56:37;;;;;;;8.33;7.60;;;24.30;61.00;;;;;;5089726;28;20468;-71
2021/04/20 11:59:05;;;;;;;7.80;7.00;;;24.60;63.30;;;;;;5089214;28;21024;-71
2021/04/20 12:01:32;;;;;;;9.50;8.63;;;23.90;63.60;;;;;;5088830;28;20450;-70
2021/04/20 12:04:01;;;;;;;9.47;8.57;;;22.60;63.40;;;;;;5089172;28;20453;-71
2021/04/20 12:06:40;;;;;;;8.37;7.57;;;22.10;66.90;;;;;;5089608;28;20865;-71
2021/04/20 12:09:07;;;;;;;7.97;7.03;;;21.80;66.50;;;;;;5088736;28;20488;-71
2021/04/20 12:11:35;;;;;;;8.43;7.63;;;21.50;67.10;;;;;;5088478;28;20465;-70
2021/04/20 12:14:02;;;;;;;7.97;7.20;;;21.00;68.20;;;;;;5089077;28;20656;-71
2021/04/20 12:16:34;;;;;;;8.10;7.30;;;20.50;71.20;;;;;;5089432;28;20454;-70
2021/04/20 12:19:01;;;;;;;8.13;7.33;;;20.90;68.40;;;;;;5088544;28;20550;-70
2021/04/20 12:21:29;;;;;;;8.43;7.63;;;20.70;66.70;;;;;;5089590;28;20453;-71
2021/04/20 12:23:57;;;;;;;10.47;9.47;;;20.40;69.20;;;;;;5087591;28;20461;-70
2021/04/20 12:26:26;;;;;;;8.67;7.87;;;19.80;68.00;;;;;;5089001;28;20503;-70
2021/04/20 12:28:55;;;;;;;9.10;8.20;;;19.70;72.40;;;;;;5088330;28;20523;-70
2021/04/20 12:31:27;;;;;;;8.83;7.87;;;20.20;70.70;;;;;;5088803;28;20468;-70
2021/04/20 12:33:55;;;;;;;10.50;9.07;;;21.10;69.80;;;;;;5088764;28;20518;-70
2021/04/20 12:36:27;;;;;;;9.23;8.13;;;22.10;69.90;;;;;;5089014;28;20457;-70
2021/04/20 12:38:56;;;;;;;7.40;6.70;;;22.70;65.10;;;;;;5088721;28;20670;-71
2021/04/20 12:41:23;;;;;;;9.90;8.10;;;22.30;65.50;;;;;;5080113;28;20458;-71
2021/04/20 12:43:55;;;;;;;9.90;8.90;;;22.10;69.60;;;;;;5067879;28;20462;-70
2021/04/20 12:46:24;;;;;;;8.97;8.07;;;22.30;67.10;;;;;;5068738;28;20470;-71
2021/04/20 12:48:56;;;;;;;8.83;6.83;;;21.90;66.50;;;;;;5067995;28;20478;-71
2021/04/20 12:51:26;;;;;;;8.27;7.57;;;21.50;67.50;;;;;;5068469;28;20459;-71
2021/04/20 12:53:53;;;;;;;8.70;7.87;;;20.80;69.40;;;;;;5067817;28;20451;-71
2021/04/20 12:56:24;;;;;;;8.70;7.60;;;19.80;70.70;;;;;;5068581;28;20489;-71
2021/04/20 12:58:52;;;;;;;8.43;7.63;;;19.40;71.50;;;;;;5067863;28;20495;-71